createdAt,value
2022-10-22T00:00:04.442Z,0.00
2022-10-22T00:01:04.471Z,0.00
2022-10-22T00:02:04.442Z,0.00
2022-10-22T00:03:04.480Z,0.00
2022-10-22T00:04:04.418Z,0.00
2022-10-22T00:05:04.422Z,0.00
2022-10-22T00:06:04.399Z,0.00
2022-10-22T00:07:04.370Z,0.00
2022-10-22T00:08:04.384Z,0.00
2022-10-22T00:09:04.409Z,0.00
2022-10-22T00:10:04.319Z,0.00
2022-10-22T00:11:04.289Z,0.00
2022-10-22T00:12:04.309Z,0.00
2022-10-22T00:13:04.287Z,0.00
2022-10-22T00:14:04.296Z,0.00
2022-10-22T00:15:25.251Z,0.00
2022-10-22T00:16:04.264Z,0.00
2022-10-22T00:17:05.860Z,0.00
2022-10-22T00:18:05.199Z,0.00
2022-10-22T00:19:04.196Z,0.00
2022-10-22T00:20:04.202Z,0.00
2022-10-22T00:21:04.153Z,0.00
2022-10-22T00:22:04.141Z,0.00
2022-10-22T00:23:04.125Z,0.00
2022-10-22T00:24:04.104Z,0.00
2022-10-22T00:25:04.099Z,0.00
2022-10-22T00:26:04.095Z,0.00
2022-10-22T00:27:04.063Z,0.00
2022-10-22T00:28:04.054Z,0.00
2022-10-22T00:29:04.975Z,0.00
2022-10-22T00:30:04.876Z,0.00
2022-10-22T00:31:04.097Z,0.00
2022-10-22T00:32:04.977Z,0.00
2022-10-22T00:33:03.975Z,0.00
2022-10-22T00:34:04.776Z,0.00
2022-10-22T00:35:03.968Z,0.00
2022-10-22T00:36:04.822Z,0.00
2022-10-22T00:37:04.581Z,0.00
2022-10-22T00:38:04.907Z,0.00
2022-10-22T00:39:03.936Z,0.00
2022-10-22T00:40:03.879Z,0.00
2022-10-22T00:41:03.942Z,0.00
2022-10-22T00:42:04.011Z,0.00
2022-10-22T00:43:04.097Z,0.00
2022-10-22T00:44:03.830Z,0.00
2022-10-22T00:45:04.229Z,0.00
2022-10-22T00:46:04.281Z,0.00
2022-10-22T00:47:04.761Z,0.00
2022-10-22T00:48:04.336Z,0.00
2022-10-22T00:49:04.408Z,0.00
2022-10-22T00:51:04.540Z,0.00
2022-10-22T00:52:03.702Z,0.00
2022-10-22T00:53:03.713Z,0.00
2022-10-22T00:54:03.675Z,0.00
2022-10-22T00:55:04.605Z,0.00
2022-10-22T00:56:04.482Z,0.00
2022-10-22T00:57:03.933Z,0.00
2022-10-22T00:58:03.643Z,0.00
2022-10-22T00:59:03.796Z,0.00
2022-10-22T01:00:04.593Z,0.00
2022-10-22T01:01:03.706Z,0.00
2022-10-22T01:02:03.564Z,0.00
2022-10-22T01:03:03.561Z,0.00
2022-10-22T01:04:04.855Z,0.00
2022-10-22T01:05:04.384Z,0.00
2022-10-22T01:06:04.535Z,0.00
2022-10-22T01:07:03.545Z,0.00
2022-10-22T01:08:03.543Z,0.00
2022-10-22T01:09:03.549Z,0.00
2022-10-22T01:10:04.365Z,0.00
2022-10-22T01:11:03.460Z,0.00
2022-10-22T01:12:03.555Z,0.00
2022-10-22T01:13:03.518Z,0.00
2022-10-22T01:14:03.397Z,0.00
2022-10-22T01:15:03.447Z,0.00
2022-10-22T01:16:03.408Z,0.00
2022-10-22T01:17:03.369Z,0.00
2022-10-22T01:18:03.349Z,0.00
2022-10-22T01:19:03.359Z,0.00
2022-10-22T01:20:03.380Z,0.00
2022-10-22T01:21:03.459Z,0.00
2022-10-22T01:22:03.451Z,0.00
2022-10-22T01:23:03.271Z,0.00
2022-10-22T01:24:03.350Z,0.00
2022-10-22T01:25:03.296Z,0.00
2022-10-22T01:26:03.401Z,0.00
2022-10-22T01:27:03.468Z,0.00
2022-10-22T01:28:03.458Z,0.00
2022-10-22T01:29:03.194Z,0.00
2022-10-22T01:30:03.183Z,0.00
2022-10-22T01:31:03.181Z,0.00
2022-10-22T01:32:03.405Z,0.00
2022-10-22T01:33:03.382Z,0.00
2022-10-22T01:34:03.148Z,0.00
2022-10-22T01:35:03.104Z,0.00
2022-10-22T01:36:03.403Z,0.00
2022-10-22T01:37:03.450Z,0.00
2022-10-22T01:38:03.413Z,0.00
2022-10-22T01:39:03.072Z,0.00
2022-10-22T01:40:03.712Z,0.00
2022-10-22T01:41:03.051Z,0.00
2022-10-22T01:42:03.015Z,0.00
2022-10-22T01:43:02.995Z,0.00
2022-10-22T01:44:03.027Z,0.00
2022-10-22T01:45:02.977Z,0.00
2022-10-22T01:46:02.955Z,0.00
2022-10-22T01:47:02.980Z,0.00
2022-10-22T01:48:02.917Z,0.00
2022-10-22T01:49:03.694Z,0.00
2022-10-22T01:50:02.929Z,0.00
2022-10-22T01:51:02.868Z,0.00
2022-10-22T01:52:02.898Z,0.00
2022-10-22T01:53:02.863Z,0.00
2022-10-22T01:54:02.849Z,0.00
2022-10-22T01:55:02.809Z,0.00
2022-10-22T01:56:02.801Z,0.00
2022-10-22T01:57:02.797Z,0.00
2022-10-22T01:58:02.800Z,0.00
2022-10-22T01:59:02.809Z,0.00
2022-10-22T02:00:02.756Z,0.00
2022-10-22T02:01:02.792Z,0.00
2022-10-22T02:02:02.720Z,0.00
2022-10-22T02:03:02.902Z,0.00
2022-10-22T02:04:02.711Z,0.00
2022-10-22T02:05:02.671Z,0.00
2022-10-22T02:06:02.676Z,0.00
2022-10-22T02:07:02.661Z,0.00
2022-10-22T02:08:02.635Z,0.00
2022-10-22T02:09:02.703Z,0.00
2022-10-22T02:10:02.999Z,0.00
2022-10-22T02:11:02.942Z,0.00
2022-10-22T02:12:02.640Z,0.00
2022-10-22T02:13:02.582Z,0.00
2022-10-22T02:14:02.752Z,0.00
2022-10-22T02:15:02.570Z,0.00
2022-10-22T02:16:02.527Z,0.00
2022-10-22T02:17:02.506Z,0.00
2022-10-22T02:18:02.493Z,0.00
2022-10-22T02:19:02.940Z,0.00
2022-10-22T02:20:02.474Z,0.00
2022-10-22T02:21:02.497Z,0.00
2022-10-22T02:22:02.434Z,0.00
2022-10-22T02:23:02.442Z,0.00
2022-10-22T02:24:02.416Z,0.00
2022-10-22T02:25:02.407Z,0.00
2022-10-22T02:26:02.377Z,0.00
2022-10-22T02:27:02.377Z,0.00
2022-10-22T02:28:02.337Z,0.00
2022-10-22T02:29:02.338Z,0.00
2022-10-22T02:30:02.400Z,0.00
2022-10-22T02:31:02.358Z,0.00
2022-10-22T02:32:02.318Z,0.00
2022-10-22T02:33:02.287Z,0.00
2022-10-22T02:34:02.258Z,0.00
2022-10-22T02:35:02.278Z,0.00
2022-10-22T02:36:02.238Z,0.00
2022-10-22T02:37:02.218Z,0.00
2022-10-22T02:38:02.230Z,0.00
2022-10-22T02:39:02.227Z,0.00
2022-10-22T02:40:02.180Z,0.00
2022-10-22T02:41:02.181Z,0.00
2022-10-22T02:42:02.138Z,0.00
2022-10-22T02:43:02.141Z,0.00
2022-10-22T02:44:02.131Z,0.00
2022-10-22T02:45:02.101Z,0.00
2022-10-22T02:46:02.102Z,0.00
2022-10-22T02:47:02.093Z,0.00
2022-10-22T02:48:02.112Z,0.00
2022-10-22T02:49:02.083Z,0.00
2022-10-22T02:50:04.519Z,0.00
2022-10-22T02:51:02.023Z,0.00
2022-10-22T02:52:02.003Z,0.00
2022-10-22T02:53:02.195Z,0.00
2022-10-22T02:54:01.974Z,0.00
2022-10-22T02:55:02.005Z,0.00
2022-10-22T02:56:01.953Z,0.00
2022-10-22T02:57:01.974Z,0.00
2022-10-22T02:58:01.925Z,0.00
2022-10-22T02:59:01.976Z,0.00
2022-10-22T03:00:01.887Z,0.00
2022-10-22T03:01:01.954Z,0.00
2022-10-22T03:02:01.894Z,0.00
2022-10-22T03:03:01.862Z,0.00
2022-10-22T03:04:01.849Z,0.00
2022-10-22T03:05:01.807Z,0.00
2022-10-22T03:06:01.817Z,0.00
2022-10-22T03:07:01.787Z,0.00
2022-10-22T03:08:02.219Z,0.00
2022-10-22T03:09:01.886Z,0.00
2022-10-22T03:10:01.865Z,0.00
2022-10-22T03:11:01.729Z,0.00
2022-10-22T03:12:02.187Z,0.00
2022-10-22T03:13:02.290Z,0.00
2022-10-22T03:14:01.679Z,0.00
2022-10-22T03:15:01.688Z,0.00
2022-10-22T03:16:01.774Z,0.00
2022-10-22T03:17:01.679Z,0.00
2022-10-22T03:18:01.692Z,0.00
2022-10-22T03:19:01.633Z,0.00
2022-10-22T03:20:01.601Z,0.00
2022-10-22T03:21:01.654Z,0.00
2022-10-22T03:22:01.590Z,0.00
2022-10-22T03:23:01.597Z,0.00
2022-10-22T03:24:01.561Z,0.00
2022-10-22T03:25:01.549Z,0.00
2022-10-22T03:26:01.545Z,0.00
2022-10-22T03:27:02.513Z,0.00
2022-10-22T03:28:01.484Z,0.00
2022-10-22T03:29:01.481Z,0.00
2022-10-22T03:30:01.491Z,0.00
2022-10-22T03:31:01.546Z,0.00
2022-10-22T03:32:01.442Z,0.00
2022-10-22T03:33:01.434Z,0.00
2022-10-22T03:34:01.602Z,0.00
2022-10-22T03:35:01.412Z,0.00
2022-10-22T03:36:01.469Z,0.00
2022-10-22T03:37:01.376Z,0.00
2022-10-22T03:38:01.402Z,0.00
2022-10-22T03:39:01.352Z,0.00
2022-10-22T03:40:01.341Z,0.00
2022-10-22T03:41:01.334Z,0.00
2022-10-22T03:42:02.149Z,0.00
2022-10-22T03:43:02.108Z,0.00
2022-10-22T03:44:01.265Z,0.00
2022-10-22T03:45:01.326Z,0.00
2022-10-22T03:46:05.082Z,0.00
2022-10-22T03:47:02.700Z,0.00
2022-10-22T03:48:01.428Z,0.00
2022-10-22T03:49:01.236Z,0.00
2022-10-22T03:50:01.178Z,0.00
2022-10-22T03:51:01.966Z,0.00
2022-10-22T03:52:02.169Z,0.00
2022-10-22T03:53:02.029Z,0.00
2022-10-22T03:54:01.938Z,0.00
2022-10-22T03:55:01.170Z,0.00
2022-10-22T03:56:01.153Z,0.00
2022-10-22T03:57:01.078Z,0.00
2022-10-22T03:58:02.061Z,0.00
2022-10-22T03:59:02.028Z,0.00
2022-10-22T04:00:01.910Z,0.00
2022-10-22T04:01:01.070Z,0.00
2022-10-22T04:02:01.954Z,0.00
2022-10-22T04:03:01.840Z,0.00
2022-10-22T04:04:02.029Z,0.00
2022-10-22T04:05:01.043Z,0.00
2022-10-22T04:06:01.087Z,0.00
2022-10-22T04:07:00.940Z,0.00
2022-10-22T04:08:01.871Z,0.00
2022-10-22T04:09:01.027Z,0.00
2022-10-22T04:10:00.941Z,0.00
2022-10-22T04:11:01.871Z,0.00
2022-10-22T04:12:00.862Z,0.00
2022-10-22T04:13:01.683Z,0.00
2022-10-22T04:14:01.879Z,0.00
2022-10-22T04:15:01.752Z,0.00
2022-10-22T04:16:00.844Z,0.00
2022-10-22T04:17:00.803Z,0.00
2022-10-22T04:18:00.797Z,0.00
2022-10-22T04:19:00.847Z,0.00
2022-10-22T04:20:02.200Z,0.00
2022-10-22T04:21:00.764Z,0.00
2022-10-22T04:22:00.733Z,0.00
2022-10-22T04:23:00.724Z,0.00
2022-10-22T04:24:00.754Z,0.00
2022-10-22T04:25:00.727Z,0.00
2022-10-22T04:26:00.704Z,0.00
2022-10-22T04:27:00.703Z,0.00
2022-10-22T04:28:00.725Z,0.00
2022-10-22T04:29:00.704Z,0.00
2022-10-22T04:30:00.670Z,0.00
2022-10-22T04:31:00.666Z,0.00
2022-10-22T04:32:00.617Z,0.00
2022-10-22T04:33:00.587Z,0.00
2022-10-22T04:34:00.629Z,0.00
2022-10-22T04:35:00.760Z,0.00
2022-10-22T04:36:00.589Z,0.00
2022-10-22T04:37:00.656Z,0.00
2022-10-22T04:38:00.620Z,0.00
2022-10-22T04:39:00.507Z,0.00
2022-10-22T04:40:00.490Z,0.00
2022-10-22T04:41:00.627Z,0.00
2022-10-22T04:42:00.479Z,0.00
2022-10-22T04:43:00.438Z,0.00
2022-10-22T04:44:00.423Z,0.00
2022-10-22T04:45:00.482Z,0.00
2022-10-22T04:46:00.464Z,0.00
2022-10-22T04:47:00.449Z,0.00
2022-10-22T04:48:00.404Z,0.00
2022-10-22T04:49:00.490Z,0.00
2022-10-22T04:50:00.430Z,0.00
2022-10-22T04:51:00.420Z,0.00
2022-10-22T04:52:00.365Z,0.00
2022-10-22T04:53:00.440Z,0.00
2022-10-22T04:54:00.393Z,0.00
2022-10-22T04:55:01.232Z,0.00
2022-10-22T04:56:00.435Z,0.00
2022-10-22T04:57:00.415Z,0.00
2022-10-22T04:58:00.375Z,0.00
2022-10-22T04:59:00.441Z,0.00
2022-10-22T05:00:00.199Z,0.00
2022-10-22T05:01:00.217Z,0.00
2022-10-22T05:02:00.164Z,0.00
2022-10-22T05:03:00.406Z,0.00
2022-10-22T05:04:00.426Z,0.00
2022-10-22T05:05:00.148Z,0.00
2022-10-22T05:06:00.183Z,0.00
2022-10-22T05:07:00.114Z,0.00
2022-10-22T05:08:00.097Z,0.00
2022-10-22T05:09:00.158Z,0.00
2022-10-22T05:10:00.082Z,0.00
2022-10-22T05:11:00.085Z,0.00
2022-10-22T05:12:00.045Z,0.00
2022-10-22T05:13:00.046Z,0.00
2022-10-22T05:14:00.005Z,0.00
2022-10-22T05:15:00.028Z,0.00
2022-10-22T05:15:59.982Z,0.00
2022-10-22T05:17:00.090Z,0.00
2022-10-22T05:17:59.956Z,0.00
2022-10-22T05:18:59.978Z,0.00
2022-10-22T05:19:59.995Z,0.00
2022-10-22T05:20:59.977Z,0.00
2022-10-22T05:21:59.895Z,0.00
2022-10-22T05:22:59.888Z,0.00
2022-10-22T05:24:00.721Z,0.00
2022-10-22T05:24:59.848Z,0.00
2022-10-22T05:25:59.829Z,4.00
2022-10-22T05:26:59.859Z,4.00
2022-10-22T05:28:00.372Z,4.00
2022-10-22T05:28:59.799Z,0.00
2022-10-22T05:30:00.139Z,4.00
2022-10-22T05:31:00.558Z,4.00
2022-10-22T05:31:59.764Z,4.00
2022-10-22T05:32:59.770Z,8.00
2022-10-22T05:33:59.931Z,8.00
2022-10-22T05:34:59.691Z,8.00
2022-10-22T05:35:59.681Z,12.00
2022-10-22T05:36:59.737Z,16.00
2022-10-22T05:37:59.700Z,16.00
2022-10-22T05:38:59.671Z,20.00
2022-10-22T05:40:12.370Z,24.00
2022-10-22T05:41:00.632Z,28.00
2022-10-22T05:41:59.682Z,32.00
2022-10-22T05:42:59.587Z,40.00
2022-10-22T05:43:59.601Z,40.00
2022-10-22T05:44:59.593Z,48.00
2022-10-22T05:45:59.559Z,60.00
2022-10-22T05:46:59.536Z,64.00
2022-10-22T05:47:59.527Z,76.00
2022-10-22T05:49:00.162Z,88.00
2022-10-22T05:49:59.543Z,96.00
2022-10-22T05:50:59.515Z,108.00
2022-10-22T05:51:59.511Z,120.00
2022-10-22T05:52:59.503Z,136.00
2022-10-22T05:53:59.454Z,148.00
2022-10-22T05:54:59.675Z,164.00
2022-10-22T05:55:59.408Z,180.00
2022-10-22T05:56:59.445Z,196.00
2022-10-22T05:57:59.379Z,212.00
2022-10-22T05:58:59.431Z,232.00
2022-10-22T05:59:59.473Z,248.00
2022-10-22T06:00:59.356Z,268.00
2022-10-22T06:01:59.515Z,288.00
2022-10-22T06:02:59.534Z,304.00
2022-10-22T06:03:59.299Z,324.00
2022-10-22T06:04:59.283Z,344.00
2022-10-22T06:05:59.268Z,364.00
2022-10-22T06:06:59.269Z,388.00
2022-10-22T06:08:00.688Z,412.00
2022-10-22T06:08:59.301Z,432.00
2022-10-22T06:10:00.237Z,456.00
2022-10-22T06:10:59.205Z,480.00
2022-10-22T06:11:59.211Z,504.00
2022-10-22T06:12:59.326Z,536.00
2022-10-22T06:13:59.158Z,564.00
2022-10-22T06:14:59.139Z,596.00
2022-10-22T06:15:59.159Z,636.00
2022-10-22T06:16:59.100Z,676.00
2022-10-22T06:17:59.132Z,724.00
2022-10-22T06:18:59.112Z,772.00
2022-10-22T06:19:59.127Z,824.00
2022-10-22T06:20:59.102Z,884.00
2022-10-22T06:21:59.032Z,940.00
2022-10-22T06:22:59.914Z,1000.00
2022-10-22T06:23:59.044Z,1068.00
2022-10-22T06:24:59.015Z,1124.00
2022-10-22T06:25:59.006Z,1188.00
2022-10-22T06:26:58.967Z,1240.00
2022-10-22T06:27:58.954Z,1280.00
2022-10-22T06:28:58.957Z,1336.00
2022-10-22T06:29:58.935Z,1380.00
2022-10-22T06:30:58.916Z,1416.00
2022-10-22T06:31:58.998Z,1464.00
2022-10-22T06:32:58.887Z,1516.00
2022-10-22T06:33:58.886Z,1572.00
2022-10-22T06:34:58.909Z,1624.00
2022-10-22T06:35:58.865Z,1700.00
2022-10-22T06:36:58.819Z,1752.00
2022-10-22T06:37:58.819Z,1808.00
2022-10-22T06:38:58.806Z,1860.00
2022-10-22T06:39:58.787Z,1932.00
2022-10-22T06:40:58.829Z,2016.00
2022-10-22T06:41:58.768Z,2100.00
2022-10-22T06:42:58.837Z,2184.00
2022-10-22T06:43:58.744Z,2264.00
2022-10-22T06:44:58.777Z,2348.00
2022-10-22T06:45:58.720Z,2456.00
2022-10-22T06:46:58.703Z,2576.00
2022-10-22T06:47:58.682Z,2692.00
2022-10-22T06:48:58.698Z,2784.00
2022-10-22T06:49:58.652Z,2888.00
2022-10-22T06:50:58.741Z,2988.00
2022-10-22T06:51:58.620Z,3088.00
2022-10-22T06:52:58.659Z,3204.00
2022-10-22T06:53:58.596Z,3308.00
2022-10-22T06:54:58.580Z,3408.00
2022-10-22T06:55:58.582Z,3500.00
2022-10-22T06:56:59.224Z,3544.00
2022-10-22T06:57:58.542Z,3656.00
2022-10-22T06:58:58.574Z,3748.00
2022-10-22T06:59:58.524Z,3812.00
2022-10-22T07:00:58.533Z,3900.00
2022-10-22T07:01:58.471Z,3968.00
2022-10-22T07:02:59.845Z,4052.00
2022-10-22T07:03:58.463Z,4128.00
2022-10-22T07:04:59.558Z,4216.00
2022-10-22T07:05:58.465Z,4304.00
2022-10-22T07:06:59.289Z,4408.00
2022-10-22T07:07:58.425Z,4484.00
2022-10-22T07:08:58.578Z,4592.00
2022-10-22T07:09:59.310Z,4676.00
2022-10-22T07:10:58.367Z,4808.00
2022-10-22T07:11:58.344Z,4904.00
2022-10-22T07:12:58.345Z,5008.00
2022-10-22T07:13:59.116Z,5156.00
2022-10-22T07:14:58.347Z,5264.00
2022-10-22T07:15:58.286Z,5360.00
2022-10-22T07:16:58.417Z,5480.00
2022-10-22T07:17:59.266Z,5576.00
2022-10-22T07:18:58.246Z,5708.00
2022-10-22T07:19:59.090Z,5800.00
2022-10-22T07:20:59.249Z,5860.00
2022-10-22T07:21:59.155Z,5952.00
2022-10-22T07:22:58.829Z,6040.00
2022-10-22T07:23:59.227Z,6132.00
2022-10-22T07:25:01.582Z,6188.00
2022-10-22T07:25:59.022Z,6232.00
2022-10-22T07:26:58.198Z,6276.00
2022-10-22T07:27:58.159Z,6344.00
2022-10-22T07:28:58.158Z,6396.00
2022-10-22T07:29:58.110Z,6476.00
2022-10-22T07:30:58.188Z,6572.00
2022-10-22T07:31:58.081Z,6652.00
2022-10-22T07:32:58.120Z,6752.00
2022-10-22T07:33:58.992Z,7040.00
2022-10-22T07:34:58.031Z,7308.00
2022-10-22T07:35:58.022Z,7468.00
2022-10-22T07:36:58.963Z,7568.00
2022-10-22T07:37:58.862Z,7864.00
2022-10-22T07:38:58.026Z,7696.00
2022-10-22T07:40:01.496Z,8128.00
2022-10-22T07:40:59.349Z,8564.00
2022-10-22T07:41:58.043Z,8988.00
2022-10-22T07:42:58.940Z,9148.00
2022-10-22T07:43:58.794Z,9400.00
2022-10-22T07:44:57.882Z,10408.00
2022-10-22T07:45:59.348Z,11576.00
2022-10-22T07:46:57.949Z,12072.00
2022-10-22T07:47:58.706Z,12168.00
2022-10-22T07:48:57.846Z,12776.00
2022-10-22T07:49:57.849Z,12828.00
2022-10-22T07:50:57.805Z,12932.00
2022-10-22T07:51:59.096Z,13336.00
2022-10-22T07:52:58.503Z,13400.00
2022-10-22T07:53:58.214Z,13404.00
2022-10-22T07:54:58.547Z,13192.00
2022-10-22T07:55:58.671Z,13080.00
2022-10-22T07:56:58.613Z,13364.00
2022-10-22T07:57:57.815Z,14276.00
2022-10-22T07:58:57.751Z,13404.00
2022-10-22T07:59:57.696Z,13140.00
2022-10-22T08:00:58.481Z,12764.00
2022-10-22T08:01:57.850Z,12632.00
2022-10-22T08:02:57.927Z,12368.00
2022-10-22T08:03:57.669Z,12084.00
2022-10-22T08:04:57.968Z,12072.00
2022-10-22T08:05:58.020Z,12596.00
2022-10-22T08:06:58.100Z,12536.00
2022-10-22T08:07:57.592Z,12468.00
2022-10-22T08:08:57.632Z,12456.00
2022-10-22T08:09:58.235Z,12400.00
2022-10-22T08:10:58.271Z,12288.00
2022-10-22T08:11:58.410Z,12176.00
2022-10-22T08:12:57.491Z,12020.00
2022-10-22T08:13:58.394Z,11948.00
2022-10-22T08:14:57.558Z,11796.00
2022-10-22T08:15:58.323Z,12004.00
2022-10-22T08:16:58.223Z,13540.00
2022-10-22T08:17:58.392Z,13328.00
2022-10-22T08:18:57.413Z,11936.00
2022-10-22T08:19:57.391Z,11804.00
2022-10-22T08:20:57.464Z,12340.00
2022-10-22T08:21:57.406Z,11804.00
2022-10-22T08:22:57.365Z,11432.00
2022-10-22T08:23:57.375Z,11252.00
2022-10-22T08:24:57.403Z,10916.00
2022-10-22T08:25:57.383Z,10780.00
2022-10-22T08:26:57.340Z,10700.00
2022-10-22T08:27:57.305Z,10576.00
2022-10-22T08:28:57.274Z,10652.00
2022-10-22T08:29:57.257Z,10636.00
2022-10-22T08:30:57.239Z,10472.00
2022-10-22T08:31:57.248Z,10524.00
2022-10-22T08:32:57.218Z,10452.00
2022-10-22T08:33:57.240Z,10252.00
2022-10-22T08:34:57.181Z,9780.00
2022-10-22T08:35:57.204Z,9996.00
2022-10-22T08:36:57.149Z,9820.00
2022-10-22T08:37:57.137Z,9856.00
2022-10-22T08:38:57.138Z,9792.00
2022-10-22T08:39:57.172Z,9800.00
2022-10-22T08:40:57.092Z,9632.00
2022-10-22T08:41:57.089Z,9620.00
2022-10-22T08:42:57.091Z,9612.00
2022-10-22T08:43:57.058Z,9452.00
2022-10-22T08:44:57.040Z,9396.00
2022-10-22T08:45:57.030Z,9236.00
2022-10-22T08:46:56.981Z,9012.00
2022-10-22T08:47:57.014Z,8948.00
2022-10-22T08:48:57.062Z,8772.00
2022-10-22T08:49:57.841Z,8544.00
2022-10-22T08:50:57.789Z,8356.00
2022-10-22T08:51:56.932Z,8196.00
2022-10-22T08:52:56.942Z,8084.00
2022-10-22T08:53:56.904Z,8032.00
2022-10-22T08:54:56.904Z,7956.00
2022-10-22T08:55:59.393Z,7852.00
2022-10-22T08:56:56.886Z,7688.00
2022-10-22T08:57:56.873Z,7488.00
2022-10-22T08:58:56.903Z,7332.00
2022-10-22T08:59:56.875Z,7208.00
2022-10-22T09:00:56.857Z,7176.00
2022-10-22T09:01:56.767Z,7064.00
2022-10-22T09:02:56.787Z,6868.00
2022-10-22T09:03:56.769Z,6800.00
2022-10-22T09:04:57.679Z,6800.00
2022-10-22T09:05:56.752Z,6764.00
2022-10-22T09:06:56.719Z,6920.00
2022-10-22T09:07:56.686Z,7028.00
2022-10-22T09:08:56.730Z,7152.00
2022-10-22T09:09:56.689Z,7336.00
2022-10-22T09:10:56.679Z,7304.00
2022-10-22T09:11:57.518Z,7568.00
2022-10-22T09:12:56.604Z,7788.00
2022-10-22T09:13:56.610Z,7980.00
2022-10-22T09:14:56.615Z,8144.00
2022-10-22T09:15:58.077Z,8300.00
2022-10-22T09:16:56.578Z,8392.00
2022-10-22T09:17:56.569Z,8452.00
2022-10-22T09:18:56.540Z,8496.00
2022-10-22T09:19:56.513Z,8340.00
2022-10-22T09:20:56.500Z,8236.00
2022-10-22T09:21:56.493Z,8244.00
2022-10-22T09:22:56.482Z,8172.00
2022-10-22T09:23:56.461Z,8072.00
2022-10-22T09:24:56.427Z,8068.00
2022-10-22T09:25:56.452Z,7808.00
2022-10-22T09:26:56.433Z,7592.00
2022-10-22T09:27:56.405Z,7568.00
2022-10-22T09:28:57.167Z,7552.00
2022-10-22T09:29:56.367Z,7572.00
2022-10-22T09:31:56.372Z,7612.00
2022-10-22T09:32:56.355Z,7528.00
2022-10-22T09:33:56.325Z,7552.00
2022-10-22T09:34:56.325Z,7664.00
2022-10-22T09:35:56.297Z,7788.00
2022-10-22T09:36:56.276Z,7868.00
2022-10-22T09:37:56.267Z,7772.00
2022-10-22T09:38:56.298Z,7696.00
2022-10-22T09:39:56.768Z,7672.00
2022-10-22T09:40:56.236Z,7784.00
2022-10-22T09:41:56.192Z,7804.00
2022-10-22T09:42:56.228Z,7856.00
2022-10-22T09:43:56.158Z,7944.00
2022-10-22T09:44:56.171Z,8000.00
2022-10-22T09:45:56.173Z,8108.00
2022-10-22T09:46:56.131Z,8260.00
2022-10-22T09:48:02.019Z,8400.00
2022-10-22T09:48:57.164Z,8488.00
2022-10-22T09:49:56.101Z,8612.00
2022-10-22T09:50:56.553Z,8736.00
2022-10-22T09:51:56.071Z,8796.00
2022-10-22T09:52:56.041Z,8880.00
2022-10-22T09:53:56.030Z,8964.00
2022-10-22T09:54:56.025Z,8956.00
2022-10-22T09:56:56.843Z,9160.00
2022-10-22T09:57:55.966Z,9248.00
2022-10-22T09:58:55.965Z,9368.00
2022-10-22T09:59:55.943Z,9256.00
2022-10-22T10:00:55.904Z,9060.00
2022-10-22T10:01:55.922Z,9176.00
2022-10-22T10:02:56.754Z,9276.00
2022-10-22T10:03:55.934Z,9200.00
2022-10-22T10:04:55.914Z,9092.00
2022-10-22T10:05:56.042Z,9032.00
2022-10-22T10:06:55.867Z,9032.00
2022-10-22T10:07:55.851Z,9004.00
2022-10-22T10:08:55.876Z,8912.00
2022-10-22T10:09:55.830Z,8804.00
2022-10-22T10:10:55.832Z,8936.00
2022-10-22T10:11:55.781Z,8888.00
2022-10-22T10:12:55.753Z,8716.00
2022-10-22T10:13:55.782Z,8788.00
2022-10-22T10:14:55.729Z,9016.00
2022-10-22T10:15:55.749Z,9132.00
2022-10-22T10:16:55.688Z,9248.00
2022-10-22T10:17:55.689Z,9244.00
2022-10-22T10:18:55.667Z,9236.00
2022-10-22T10:19:57.012Z,9260.00
2022-10-22T10:20:55.650Z,9276.00
2022-10-22T10:21:55.655Z,9256.00
2022-10-22T10:22:56.592Z,9236.00
2022-10-22T10:23:55.623Z,9268.00
2022-10-22T10:24:55.677Z,9280.00
2022-10-22T10:25:55.593Z,9260.00
2022-10-22T10:26:55.610Z,9228.00
2022-10-22T10:27:55.553Z,9204.00
2022-10-22T10:28:55.555Z,9364.00
2022-10-22T10:29:55.542Z,9480.00
2022-10-22T10:30:55.578Z,9584.00
2022-10-22T10:31:55.513Z,9680.00
2022-10-22T10:32:56.455Z,9884.00
2022-10-22T10:33:55.454Z,9820.00
2022-10-22T10:34:56.205Z,9912.00
2022-10-22T10:35:55.428Z,9980.00
2022-10-22T10:36:56.275Z,9892.00
2022-10-22T10:37:55.655Z,9656.00
2022-10-22T10:38:55.427Z,9312.00
2022-10-22T10:39:56.244Z,9024.00
2022-10-22T10:40:55.354Z,8664.00
2022-10-22T10:41:56.797Z,8332.00
2022-10-22T10:42:56.208Z,8028.00
2022-10-22T10:43:55.322Z,7732.00
2022-10-22T10:44:55.295Z,7456.00
2022-10-22T10:45:56.169Z,7228.00
2022-10-22T10:46:56.078Z,7036.00
2022-10-22T10:47:55.231Z,6900.00
2022-10-22T10:48:56.141Z,6840.00
2022-10-22T10:49:55.210Z,6588.00
2022-10-22T10:50:55.296Z,6392.00
2022-10-22T10:51:56.110Z,6236.00
2022-10-22T10:52:55.210Z,6120.00
2022-10-22T10:53:55.921Z,6100.00
2022-10-22T10:54:56.137Z,6056.00
2022-10-22T10:55:55.983Z,6040.00
2022-10-22T10:56:55.884Z,5964.00
2022-10-22T10:57:55.093Z,5984.00
2022-10-22T10:58:55.118Z,6020.00
2022-10-22T10:59:55.078Z,6024.00
2022-10-22T11:00:55.064Z,6152.00
2022-10-22T11:01:55.156Z,6300.00
2022-10-22T11:03:55.983Z,6476.00
2022-10-22T11:04:56.508Z,6592.00
2022-10-22T11:05:55.787Z,6696.00
2022-10-22T11:07:10.659Z,6752.00
2022-10-22T11:07:56.572Z,6772.00
2022-10-22T11:08:56.441Z,6764.00
2022-10-22T11:09:54.911Z,6740.00
2022-10-22T11:10:54.988Z,6688.00
2022-10-22T11:11:55.251Z,6656.00
2022-10-22T11:12:54.888Z,6612.00
2022-10-22T11:13:55.787Z,6528.00
2022-10-22T11:14:55.691Z,6396.00
2022-10-22T11:15:54.851Z,6364.00
2022-10-22T11:16:55.793Z,6472.00
2022-10-22T11:17:55.660Z,6580.00
2022-10-22T11:18:54.855Z,6716.00
2022-10-22T11:19:59.167Z,6832.00
2022-10-22T11:20:55.789Z,6908.00
2022-10-22T11:21:56.246Z,7032.00
2022-10-22T11:23:18.164Z,7108.00
2022-10-22T11:23:55.835Z,7216.00
2022-10-22T11:24:55.561Z,7360.00
2022-10-22T11:25:55.696Z,7268.00
2022-10-22T11:26:55.563Z,7448.00
2022-10-22T11:27:59.764Z,7388.00
2022-10-22T11:28:55.847Z,7400.00
2022-10-22T11:29:55.632Z,7456.00
2022-10-22T11:30:55.481Z,7352.00
2022-10-22T11:31:54.699Z,7228.00
2022-10-22T11:32:56.070Z,7220.00
2022-10-22T11:34:04.768Z,7264.00
2022-10-22T11:34:55.605Z,7260.00
2022-10-22T11:35:55.518Z,7288.00
2022-10-22T11:36:55.408Z,7356.00
2022-10-22T11:37:55.329Z,7412.00
2022-10-22T11:38:55.438Z,7452.00
2022-10-22T11:39:54.626Z,7828.00
2022-10-22T11:40:54.756Z,8140.00
2022-10-22T11:41:54.678Z,8888.00
2022-10-22T11:42:54.855Z,9008.00
2022-10-22T11:43:54.812Z,8912.00
2022-10-22T11:44:55.060Z,9904.00
2022-10-22T11:45:54.861Z,17344.00
2022-10-22T11:46:54.442Z,23360.00
2022-10-22T11:47:54.391Z,32320.00
2022-10-22T11:48:55.069Z,36480.00
2022-10-22T11:49:54.417Z,39616.00
2022-10-22T11:50:55.326Z,41600.00
2022-10-22T11:51:54.362Z,29664.00
2022-10-22T11:52:54.517Z,38656.00
2022-10-22T11:53:54.482Z,36064.00
2022-10-22T11:54:54.373Z,41248.00
2022-10-22T11:55:54.283Z,43488.00
2022-10-22T11:56:54.315Z,43680.00
2022-10-22T11:57:54.255Z,42528.00
2022-10-22T11:58:54.980Z,42912.00
2022-10-22T11:59:54.266Z,45120.00
2022-10-22T12:00:54.323Z,46656.00
2022-10-22T12:01:54.265Z,46560.00
2022-10-22T12:02:54.352Z,43776.00
2022-10-22T12:03:54.185Z,43648.00
2022-10-22T12:04:54.324Z,45024.00
2022-10-22T12:05:54.218Z,45696.00
2022-10-22T12:06:54.197Z,44096.00
2022-10-22T12:07:54.164Z,39904.00
2022-10-22T12:08:54.320Z,32512.00
2022-10-22T12:09:54.374Z,42848.00
2022-10-22T12:10:54.119Z,48576.00
2022-10-22T12:11:54.134Z,48480.00
2022-10-22T12:12:54.090Z,47840.00
2022-10-22T12:13:54.090Z,37664.00
2022-10-22T12:14:54.844Z,38400.00
2022-10-22T12:15:54.007Z,42016.00
2022-10-22T12:16:56.634Z,35424.00
2022-10-22T12:17:54.002Z,43520.00
2022-10-22T12:18:53.956Z,49088.00
2022-10-22T12:19:55.509Z,30624.00
2022-10-22T12:20:54.005Z,50976.00
2022-10-22T12:21:54.775Z,49824.00
2022-10-22T12:22:55.375Z,48896.00
2022-10-22T12:23:53.974Z,48608.00
2022-10-22T12:24:53.907Z,48064.00
2022-10-22T12:25:53.896Z,48032.00
2022-10-22T12:26:53.885Z,48544.00
2022-10-22T12:27:53.909Z,48192.00
2022-10-22T12:28:53.871Z,47328.00
2022-10-22T12:29:53.838Z,44576.00
2022-10-22T12:30:53.806Z,43648.00
2022-10-22T12:31:53.787Z,45216.00
2022-10-22T12:32:53.779Z,44768.00
2022-10-22T12:33:53.840Z,44160.00
2022-10-22T12:34:53.767Z,44960.00
2022-10-22T12:35:53.801Z,14068.00
2022-10-22T12:36:53.748Z,11808.00
2022-10-22T12:37:53.703Z,12720.00